首页
METAR-TAF:

METAR-TAF

机场 :

洛格罗尼奥, 西班牙

纬度: 42-27N, 经度: 002-20W, 海拔: 353米

当前天气观测

该预报发布于12分钟前的12:00 UTC
风速4节,风向西转西南,在北转西北之间变化
温度 23°C
湿度 53%
气压 1016 hPa
能见度10公里或以上
散云层高于4000英尺

METAR: LELO 201200Z 25004KT 190V330 9999 SCT040 23/13 Q1016

时间: 14:12 (12:12 UTC)

预报

该预报发布于1小时和12分钟前的11:00 UTC
预报有效从20日的 12点(UTC)到 20日的 21点(UTC)
风速6节,风向西转西北
能见度10公里或以上
多云层高于3000英尺
短暂存在
从 20日的 12点(UTC)到 20日的 21点(UTC)
少量云层高于4500英尺, 塔状积云.
短暂存在
从 20日的 13点(UTC)到 20日的 21点(UTC)
少量云层高于3500英尺, 积雨云.
阵雨
几率 40% :
短暂存在
从 20日的 14点(UTC)到 20日的 21点(UTC)
风速15节,风向多变,有时为25节阵风
能見度: 3000
散云层高于2500英尺, 积雨云.
雷暴, 阵雨

TAF: LELO 201100Z 2012/2021 29006KT 9999 BKN030 TEMPO 2012/2021 FEW045TCU TEMPO 2013/2021 SHRA FEW035CB PROB40 TEMPO 2014/2021 VRB15G25KT 3000 TS SHRA SCT025CB

超过4000个机场的气象观测和天气预报(METAR&TAF报告)。

可查询的气象台以黄色和红色小点在地图上表示。

将鼠标移到小点上方,可查看气象台名称。

然后点击查看天气观测和预报。

如需切换地图:点击带黑十字的绿色按钮放大地图;点击带横线的绿色按钮缩小地图;或者点击绿色箭头查看邻近地区的地图。


METAR-TAF: